KORH

Worcester Regional Airport

Worcester, Massachusetts, USA
METAR KORH 140054Z 04003KT 10SM FEW041 OVC048 M03/M09 A3050 RMK AO2 SLP347 T10331089
Observed Flight Rules
Dec-14 @ 00:54 UTC (26 minutes ago) Visual Flight Rules
Wind Visibility Clouds
40° at 3 knots 10 miles
  • Few at 4,100' AGL
  • Overcast at 4,800' AGL
Temperatures Readings
Current -3°C / 27°F
Dewpoint -9°C / 16°F
Humidity 64%
Altimeter 30.5" Hg
Pressure 1034.7 hPa
Elevation 304
METAR KORH 140054Z 04003KT 10SM FEW041 OVC048 M03/M09 A3050 RMK AO2 SLP347 T10331089
Observed Flight Rules
Dec-14 @ 00:54 UTC
(26 minutes ago)
VFR
Wind Visibility
40° at 3 knots 10 miles
Clouds
  • Few at 4,100' AGL
  • Overcast at 4,800' AGL
Temperature Dewpoint
-3°C / 27°F -9°C / 16°F
Humidity Altimeter Pressure
64% 30.5" Hg 1034.7 hPa